Time;durP1;ratioP1;P1;durP2;ratioP2;P2;SDS_P1;SDS_P2;PMS_P1;PMS_P2;Temp;Humidity;BMP_temperature;BMP_pressure;BME280_temperature;BME280_humidity;BME280_pressure;Samples;Min_cycle;Max_cycle;Signal;HPM_P1;HPM_P2
2022/03/31 00:02:10;;;;;;;;;49.75;40.00;;;;;11.29;50.61;99536.56;4979011;28;45200;-62
2022/03/31 00:04:38;;;;;;;;;48.75;40.25;;;;;11.26;50.71;99528.81;4985110;28;45226;-62
2022/03/31 00:07:04;;;;;;;;;50.00;40.00;;;;;11.28;50.67;99539.25;4978150;28;45434;-62
2022/03/31 00:09:30;;;;;;;;;48.75;40.25;;;;;11.28;50.71;99539.25;4976523;28;45463;-62
2022/03/31 00:11:59;;;;;;;;;50.50;38.50;;;;;11.26;50.59;99543.72;4975501;28;45502;-62
2022/03/31 00:14:27;;;;;;;;;48.00;39.00;;;;;11.28;50.72;99550.66;4977659;28;45319;-62
2022/03/31 00:16:53;;;;;;;;;48.50;37.00;;;;;11.26;50.83;99541.97;4977899;28;45542;-62
2022/03/31 00:19:19;;;;;;;;;49.75;39.50;;;;;11.26;50.58;99541.97;4992981;28;45457;-62
2022/03/31 00:21:44;;;;;;;;;49.00;39.50;;;;;11.25;50.77;99536.75;4992927;28;45628;-62
2022/03/31 00:24:09;;;;;;;;;49.00;40.00;;;;;11.26;50.70;99536.69;4977673;28;46099;-62
2022/03/31 00:26:35;;;;;;;;;47.75;38.00;;;;;11.25;50.78;99536.75;4976656;28;45280;-62
2022/03/31 00:29:00;;;;;;;;;48.00;36.00;;;;;11.24;50.66;99533.25;4976468;28;45507;-62
2022/03/31 00:31:26;;;;;;;;;48.00;39.25;;;;;11.23;50.70;99534.16;4976557;28;45443;-62
2022/03/31 00:33:51;;;;;;;;;46.00;36.25;;;;;11.21;50.45;99526.34;4976002;28;48226;-62
2022/03/31 00:36:16;;;;;;;;;47.00;39.00;;;;;11.20;50.64;99521.13;4974978;28;45327;-62
2022/03/31 00:39:28;;;;;;;;;48.50;37.00;;;;;11.19;50.72;99516.78;4976476;28;45351;-62
2022/03/31 00:41:27;;;;;;;;;43.50;35.25;;;;;11.18;50.50;99517.69;4977437;27;45161;-62
2022/03/31 00:43:54;;;;;;;;;48.50;38.50;;;;;11.16;50.50;99514.28;4976170;28;47331;-62
2022/03/31 00:46:22;;;;;;;;;37.75;34.50;;;;;11.13;50.44;99510.00;4977303;28;45318;-63
2022/03/31 00:48:48;;;;;;;;;44.50;36.00;;;;;11.12;50.66;99510.03;4977542;28;45365;-62
2022/03/31 00:51:14;;;;;;;;;40.50;34.25;;;;;11.09;50.44;99508.38;4975890;28;45474;-62
2022/03/31 00:53:39;;;;;;;;;39.25;31.00;;;;;11.06;50.38;99504.06;4966305;28;46291;-62
2022/03/31 00:56:06;;;;;;;;;42.50;34.00;;;;;11.01;50.44;99500.75;4975808;28;45330;-62
2022/03/31 00:58:31;;;;;;;;;47.25;37.25;;;;;11.01;50.28;99506.00;4977346;28;45311;-62
2022/03/31 01:00:57;;;;;;;;;40.50;33.75;;;;;10.97;50.38;99493.91;4959762;28;45201;-62
2022/03/31 01:03:22;;;;;;;;;43.00;36.00;;;;;10.96;50.47;99501.84;4982657;28;45347;-62
2022/03/31 01:05:47;;;;;;;;;39.00;33.25;;;;;10.92;50.28;99501.09;4978616;28;45179;-62
2022/03/31 01:08:13;;;;;;;;;28.50;26.25;;;;;10.88;50.41;99494.25;4977725;28;45218;-62
2022/03/31 01:10:38;;;;;;;;;40.25;33.50;;;;;10.87;50.19;99498.63;4973910;28;45620;-62
2022/03/31 01:13:06;;;;;;;;;38.25;32.00;;;;;10.84;50.28;99489.97;4976981;28;45376;-62
2022/03/31 01:15:31;;;;;;;;;46.75;33.00;;;;;10.83;50.41;99490.88;4976964;28;45307;-62
2022/03/31 01:17:56;;;;;;;;;41.00;34.25;;;;;10.79;50.31;99484.03;4977288;28;45629;-62
2022/03/31 01:20:22;;;;;;;;;44.50;34.50;;;;;10.78;50.31;99482.31;4972935;28;45896;-62
2022/03/31 01:22:50;;;;;;;;;40.00;34.25;;;;;10.77;50.18;99480.59;4977019;28;45374;-62
2022/03/31 01:25:16;;;;;;;;;40.00;34.25;;;;;10.75;50.15;99480.66;4976177;28;45359;-62
2022/03/31 01:27:43;;;;;;;;;39.00;31.50;;;;;10.75;50.30;99474.56;4965280;28;45368;-62
2022/03/31 01:30:11;;;;;;;;;39.25;33.25;;;;;10.72;50.08;99473.72;4974361;28;45195;-62
2022/03/31 01:32:37;;;;;;;;;38.75;32.50;;;;;10.70;50.27;99472.94;4976774;28;46933;-62
2022/03/31 01:35:06;;;;;;;;;36.25;32.25;;;;;10.69;50.25;99465.09;4976507;28;45471;-62
2022/03/31 01:37:31;;;;;;;;;40.50;34.50;;;;;10.64;50.20;99459.16;4973255;28;45492;-62
2022/03/31 01:39:57;;;;;;;;;43.00;35.50;;;;;10.66;50.28;99462.59;4976378;28;45220;-62
2022/03/31 01:42:22;;;;;;;;;40.75;33.25;;;;;10.65;50.21;99466.97;4976603;28;45451;-62
2022/03/31 01:44:49;;;;;;;;;33.50;30.00;;;;;10.64;50.25;99462.66;4976581;28;45245;-62
2022/03/31 01:47:15;;;;;;;;;40.25;32.75;;;;;10.62;50.05;99456.59;4976802;28;45345;-62
2022/03/31 01:49:40;;;;;;;;;35.00;30.25;;;;;10.61;50.04;99457.50;4974434;28;45545;-62
2022/03/31 01:52:06;;;;;;;;;37.75;32.00;;;;;10.57;50.20;99459.34;4976550;27;45407;-62
2022/03/31 01:54:34;;;;;;;;;42.25;32.75;;;;;10.59;50.26;99455.81;4976325;28;45311;-62
2022/03/31 01:56:59;;;;;;;;;39.50;34.25;;;;;10.55;50.21;99447.19;4976852;28;45496;-62
2022/03/31 01:59:32;;;;;;;;;38.50;33.00;;;;;10.55;50.15;99445.44;4976014;28;45474;-62
2022/03/31 02:01:58;;;;;;;;;40.00;33.50;;;;;10.55;50.02;99455.94;4977353;28;45432;-62
2022/03/31 02:04:23;;;;;;;;;42.00;35.25;;;;;10.53;50.10;99442.00;4984112;28;45357;-62
2022/03/31 02:06:48;;;;;;;;;40.50;35.50;;;;;10.48;50.03;99437.84;4976824;28;45323;-62
2022/03/31 02:09:13;;;;;;;;;42.75;36.50;;;;;10.49;49.91;99434.25;4975974;28;45510;-62
2022/03/31 02:11:40;;;;;;;;;38.00;33.75;;;;;10.46;50.02;99429.13;4977951;28;47134;-62
2022/03/31 02:14:05;;;;;;;;;42.00;36.25;;;;;10.43;49.96;99430.09;4978889;28;45316;-62
2022/03/31 02:16:31;;;;;;;;;36.50;33.75;;;;;10.43;50.31;99426.59;4979543;28;45353;-62
2022/03/31 02:18:56;;;;;;;;;38.50;35.25;;;;;10.41;50.22;99431.91;4978949;28;45418;-62
2022/03/31 02:21:22;;;;;;;;;37.50;33.25;;;;;10.41;50.00;99426.66;4978078;28;46296;-62
2022/03/31 02:23:47;;;;;;;;;41.50;36.50;;;;;10.37;50.09;99422.44;4979218;28;45268;-63
2022/03/31 02:26:12;;;;;;;;;47.50;38.25;;;;;10.38;50.21;99429.41;4979310;27;45643;-62
2022/03/31 02:28:39;;;;;;;;;43.00;35.00;;;;;10.35;49.97;99424.22;4974796;28;45931;-62
2022/03/31 02:31:04;;;;;;;;;48.75;37.75;;;;;10.32;50.22;99427.78;4969842;28;45388;-61
2022/03/31 02:33:30;;;;;;;;;45.75;36.00;;;;;10.29;50.24;99430.53;4962132;28;45241;-61
2022/03/31 02:35:56;;;;;;;;;43.00;34.25;;;;;10.31;50.10;99441.00;4960604;28;45336;-61
2022/03/31 02:38:21;;;;;;;;;36.00;31.75;;;;;10.26;50.09;99435.88;4972580;28;45260;-61
2022/03/31 02:40:47;;;;;;;;;48.50;40.00;;;;;10.23;50.05;99441.25;4959602;28;45913;-61
2022/03/31 02:43:12;;;;;;;;;50.50;38.25;;;;;10.25;50.07;99439.41;4959514;28;45431;-62
2022/03/31 02:45:37;;;;;;;;;45.00;35.75;;;;;10.23;49.99;99439.47;4959951;28;45387;-61
2022/03/31 02:48:03;;;;;;;;;49.50;40.00;;;;;10.22;50.22;99434.28;4959212;28;45561;-61
2022/03/31 02:50:28;;;;;;;;;45.00;37.75;;;;;10.20;50.43;99433.47;4959822;28;45479;-61
2022/03/31 02:55:38;;;;;;;;;53.75;43.00;;;;;10.21;50.23;99435.19;4959718;28;45309;-61
2022/03/31 02:58:04;;;;;;;;;56.00;44.00;;;;;10.19;50.22;99421.25;4959558;28;45259;-61
2022/03/31 03:00:33;;;;;;;;;58.25;44.75;;;;;10.18;50.13;99437.91;4958303;28;45519;-61
2022/03/31 03:02:59;;;;;;;;;55.00;44.50;;;;;10.18;50.27;99435.28;4966145;28;45274;-61
2022/03/31 03:05:24;;;;;;;;;57.25;43.00;;;;;10.17;50.27;99436.19;4965349;28;45154;-61
2022/03/31 03:07:50;;;;;;;;;52.25;43.25;;;;;10.16;50.34;99431.84;4984669;28;45231;-61
2022/03/31 03:10:15;;;;;;;;;48.00;38.50;;;;;10.14;50.44;99426.66;5009333;27;45301;-61
2022/03/31 03:12:41;;;;;;;;;57.00;43.25;;;;;10.14;50.03;99429.28;4991237;27;45355;-61
2022/03/31 03:15:09;;;;;;;;;53.75;42.25;;;;;10.12;50.14;99417.97;4965111;28;45437;-61
2022/03/31 03:17:34;;;;;;;;;55.00;42.50;;;;;10.11;50.48;99416.25;4959381;28;45517;-61
2022/03/31 03:20:00;;;;;;;;;54.50;43.25;;;;;10.11;50.37;99420.66;4960089;28;46177;-61
2022/03/31 03:22:26;;;;;;;;;56.75;44.75;;;;;10.08;50.32;99413.75;4990530;28;45335;-61
2022/03/31 03:24:52;;;;;;;;;57.25;44.25;;;;;10.06;50.24;99413.78;4964529;28;45312;-61
2022/03/31 03:27:17;;;;;;;;;56.00;43.50;;;;;10.03;50.46;99405.16;4959385;28;45193;-62
2022/03/31 03:29:46;;;;;;;;;57.25;44.75;;;;;10.03;50.23;99402.53;4969832;28;48070;-61
2022/03/31 03:32:13;;;;;;;;;57.75;47.00;;;;;10.00;50.29;99400.00;4959455;28;45253;-61
2022/03/31 03:34:39;;;;;;;;;57.50;44.50;;;;;9.99;50.26;99406.19;4957722;28;45355;-61
2022/03/31 03:37:04;;;;;;;;;59.75;46.50;;;;;9.98;50.51;99396.59;4966075;28;45353;-61
2022/03/31 03:39:30;;;;;;;;;59.00;47.00;;;;;9.94;50.32;99403.69;4965201;28;45336;-61
2022/03/31 03:41:55;;;;;;;;;56.50;44.75;;;;;9.84;50.54;99387.38;4959114;28;45550;-61
2022/03/31 03:44:21;;;;;;;;;59.25;46.25;;;;;9.91;50.52;99398.53;4959234;28;45442;-60
2022/03/31 03:46:46;;;;;;;;;58.25;44.00;;;;;9.85;50.24;99403.97;4959007;28;45304;-61
2022/03/31 03:49:12;;;;;;;;;54.25;44.75;;;;;9.87;50.19;99403.06;4958732;28;45334;-61
2022/03/31 03:51:37;;;;;;;;;57.00;44.00;;;;;9.85;50.59;99404.84;4958930;28;45249;-61
2022/03/31 03:54:03;;;;;;;;;55.75;43.75;;;;;9.81;50.54;99400.63;4957445;28;45294;-61
2022/03/31 03:56:28;;;;;;;;;56.75;43.75;;;;;9.79;50.39;99397.19;4958983;28;45509;-61
2022/03/31 03:58:53;;;;;;;;;59.75;46.25;;;;;9.79;50.56;99401.59;4958765;28;45258;-61
2022/03/31 04:01:19;;;;;;;;;61.00;48.25;;;;;9.76;50.70;99407.78;4958733;28;45251;-61
2022/03/31 04:03:44;;;;;;;;;60.00;46.25;;;;;9.72;50.63;99396.53;4974918;28;45318;-61
2022/03/31 04:06:11;;;;;;;;;59.25;45.50;;;;;9.63;50.39;99396.81;4958843;28;45204;-61
2022/03/31 04:08:38;;;;;;;;;56.75;43.75;;;;;9.69;50.65;99411.50;5021124;28;45490;-61
2022/03/31 04:11:03;;;;;;;;;63.75;47.25;;;;;9.66;50.69;99407.22;4970764;28;45588;-60
2022/03/31 04:13:29;;;;;;;;;59.00;47.50;;;;;9.62;50.52;99404.72;4958595;28;45400;-60
2022/03/31 04:15:54;;;;;;;;;63.00;48.00;;;;;9.63;50.69;99406.44;4958709;28;45390;-60
2022/03/31 04:18:19;;;;;;;;;78.50;64.25;;;;;9.60;50.78;99413.50;4959037;28;45470;-61
2022/03/31 04:20:45;;;;;;;;;75.00;56.50;;;;;9.57;50.72;99404.88;4990758;28;45394;-60
2022/03/31 04:23:10;;;;;;;;;60.50;46.25;;;;;9.55;50.91;99414.56;4991162;28;45297;-60
2022/03/31 04:25:36;;;;;;;;;57.75;45.50;;;;;9.52;50.54;99410.28;4971091;28;45573;-60
2022/03/31 04:28:01;;;;;;;;;56.50;45.25;;;;;9.52;50.64;99404.16;4958394;28;46169;-60
2022/03/31 04:30:26;;;;;;;;;57.50;45.25;;;;;9.49;50.42;99405.09;4962940;28;45418;-60
2022/03/31 04:32:52;;;;;;;;;57.00;45.75;;;;;9.46;50.64;99410.47;4966331;28;45320;-61
2022/03/31 04:35:17;;;;;;;;;57.50;45.75;;;;;9.42;50.72;99406.19;4958206;28;45213;-61
2022/03/31 04:37:43;;;;;;;;;57.50;43.75;;;;;9.42;50.79;99417.56;4983926;28;46219;-60
2022/03/31 04:40:10;;;;;;;;;55.00;43.25;;;;;9.40;50.37;99414.13;4973624;28;45331;-61
2022/03/31 04:42:36;;;;;;;;;55.75;44.75;;;;;9.38;50.81;99410.69;4958489;28;45277;-61
2022/03/31 04:45:03;;;;;;;;;54.00;43.00;;;;;9.35;50.36;99416.03;4958069;28;45541;-61
2022/03/31 04:47:29;;;;;;;;;51.75;43.50;;;;;9.35;50.34;99421.25;4958221;28;45281;-60
2022/03/31 04:49:55;;;;;;;;;56.75;44.00;;;;;9.33;50.69;99420.44;4957692;28;45406;-61
2022/03/31 04:52:20;;;;;;;;;60.00;47.75;;;;;9.32;50.69;99418.75;4958423;28;45339;-61
2022/03/31 04:54:46;;;;;;;;;52.75;43.75;;;;;9.31;50.81;99421.41;4957867;28;45418;-60
2022/03/31 04:57:13;;;;;;;;;54.25;43.50;;;;;9.29;50.61;99418.81;4958074;28;45424;-60
2022/03/31 04:59:38;;;;;;;;;64.25;48.50;;;;;9.24;50.62;99413.75;4957927;28;45293;-60
2022/03/31 05:02:04;;;;;;;;;55.50;44.00;;;;;9.26;50.36;99424.19;4958221;28;45304;-60
2022/03/31 05:04:30;;;;;;;;;51.75;42.50;;;;;9.24;50.44;99421.59;4970752;28;45803;-60
2022/03/31 05:06:55;;;;;;;;;57.00;46.25;;;;;9.23;50.40;99417.25;4958015;28;45260;-60
2022/03/31 05:09:21;;;;;;;;;50.75;38.50;;;;;9.22;50.50;99414.66;5025258;28;45284;-60
2022/03/31 05:11:47;;;;;;;;;56.00;45.25;;;;;9.20;50.63;99426.97;4964406;28;45436;-61
2022/03/31 05:14:12;;;;;;;;;56.50;45.75;;;;;9.19;50.60;99413.00;4957668;28;45279;-61
2022/03/31 05:16:37;;;;;;;;;55.25;42.50;;;;;9.19;50.51;99420.00;4957716;28;45404;-60
2022/03/31 05:19:03;;;;;;;;;52.00;43.00;;;;;9.18;50.44;99428.78;4957582;28;45263;-60
2022/03/31 05:21:29;;;;;;;;;56.75;44.00;;;;;9.15;50.63;99421.84;4969445;28;45455;-61
2022/03/31 05:23:54;;;;;;;;;55.75;43.75;;;;;9.13;50.35;99425.44;4970581;28;45314;-61
2022/03/31 05:26:19;;;;;;;;;57.75;45.00;;;;;9.15;50.38;99434.13;4957498;28;45302;-61
2022/03/31 05:28:45;;;;;;;;;55.00;43.25;;;;;9.13;50.36;99438.53;4957564;28;45418;-61
2022/03/31 05:31:10;;;;;;;;;53.50;43.50;;;;;9.12;50.47;99437.69;4968700;28;45346;-60
2022/03/31 05:33:36;;;;;;;;;54.75;42.00;;;;;9.09;50.63;99441.25;4958873;28;45351;-60
2022/03/31 05:36:01;;;;;;;;;57.25;44.50;;;;;9.10;50.47;99444.72;4957990;28;46134;-61
2022/03/31 05:38:27;;;;;;;;;62.50;47.25;;;;;9.04;50.55;99427.44;4955991;28;45371;-61
2022/03/31 05:40:53;;;;;;;;;57.75;45.00;;;;;9.07;50.57;99443.06;4968186;28;45292;-60
2022/03/31 05:43:21;;;;;;;;;60.00;46.50;;;;;9.08;50.47;99446.53;4960121;28;45379;-61
2022/03/31 05:45:46;;;;;;;;;58.75;45.75;;;;;9.07;50.67;99440.44;4960212;28;46437;-61
2022/03/31 05:48:12;;;;;;;;;57.25;46.25;;;;;9.05;50.50;99436.97;4959761;28;45426;-61
2022/03/31 05:50:37;;;;;;;;;58.75;43.75;;;;;9.06;50.51;99440.47;4960459;28;45411;-61
2022/03/31 05:53:02;;;;;;;;;58.50;46.00;;;;;9.05;50.56;99439.59;4960004;28;45556;-61
2022/03/31 05:55:28;;;;;;;;;58.25;45.25;;;;;9.04;50.56;99440.53;4960087;28;45351;-61
2022/03/31 05:57:54;;;;;;;;;60.25;46.25;;;;;9.05;50.40;99446.63;4960094;28;45364;-61
2022/03/31 06:00:21;;;;;;;;;60.50;46.75;;;;;9.04;50.53;99456.25;4960585;28;45374;-61
2022/03/31 06:02:47;;;;;;;;;60.25;46.25;;;;;9.04;50.76;99461.50;4965322;28;45316;-61
2022/03/31 06:05:13;;;;;;;;;60.00;47.00;;;;;9.03;50.56;99458.91;4967632;28;45359;-61
2022/03/31 06:07:39;;;;;;;;;58.75;47.00;;;;;9.02;50.42;99452.81;4975744;28;45235;-61
2022/03/31 06:10:06;;;;;;;;;59.00;47.25;;;;;9.04;50.53;99466.75;5018483;27;45184;-60
2022/03/31 06:12:31;;;;;;;;;66.00;50.00;;;;;9.04;50.67;99468.47;4960235;28;45223;-61
2022/03/31 06:14:57;;;;;;;;;63.75;48.75;;;;;9.04;50.60;99469.34;4959848;28;46149;-61
2022/03/31 06:17:23;;;;;;;;;70.25;54.25;;;;;9.06;50.75;99474.56;4959790;28;45415;-62
2022/03/31 06:19:49;;;;;;;;;64.75;49.50;;;;;9.07;50.88;99482.38;4959827;28;45431;-62
2022/03/31 06:22:14;;;;;;;;;75.25;58.75;;;;;9.01;50.77;99463.34;4959862;28;45494;-64
2022/03/31 06:24:39;;;;;;;;;60.75;46.25;;;;;9.11;50.67;99477.91;4985150;28;45294;-63
2022/03/31 06:27:07;;;;;;;;;69.25;51.25;;;;;9.13;50.85;99478.69;4973580;28;45302;-64
2022/03/31 06:29:33;;;;;;;;;33.75;23.75;;;;;9.15;51.05;99478.69;4959673;28;45429;-63
2022/03/31 06:31:59;;;;;;;;;65.00;49.50;;;;;9.19;50.92;99475.91;4981732;28;45475;-61
2022/03/31 06:34:24;;;;;;;;;68.00;53.00;;;;;9.22;50.96;99488.94;4982898;28;46919;-63
2022/03/31 06:36:50;;;;;;;;;63.00;49.00;;;;;9.26;50.90;99485.31;4971833;28;45258;-64
2022/03/31 06:39:16;;;;;;;;;68.50;51.50;;;;;9.29;50.96;99486.13;4968083;28;45420;-65
2022/03/31 06:41:42;;;;;;;;;63.25;49.50;;;;;9.34;51.02;99494.72;4959502;28;45333;-60
2022/03/31 06:44:08;;;;;;;;;69.50;50.75;;;;;9.37;50.69;99490.25;4958503;28;45400;-62
2022/03/31 06:46:34;;;;;;;;;66.50;52.00;;;;;9.40;51.11;99489.31;4959425;28;45404;-62
2022/03/31 06:49:01;;;;;;;;;61.50;47.25;;;;;9.44;51.10;99491.78;4958204;28;45501;-63
2022/03/31 06:51:26;;;;;;;;;68.00;52.25;;;;;9.48;51.05;99489.06;4960589;28;45407;-61
2022/03/31 06:53:51;;;;;;;;;66.50;52.00;;;;;9.52;51.11;99496.81;4958104;28;47310;-61
2022/03/31 06:56:18;;;;;;;;;70.75;53.50;;;;;9.57;51.04;99496.66;4959635;28;45401;-61
2022/03/31 06:58:44;;;;;;;;;71.50;53.00;;;;;9.60;51.18;99493.97;4958482;28;45486;-61
2022/03/31 07:01:10;;;;;;;;;71.00;52.75;;;;;9.64;51.02;99489.50;4959494;28;45207;-61
2022/03/31 07:03:36;;;;;;;;;69.25;53.25;;;;;9.65;50.90;99489.44;4957948;28;46995;-62
2022/03/31 07:06:01;;;;;;;;;67.25;52.00;;;;;9.67;51.09;99477.13;4959456;28;45411;-61
2022/03/31 07:08:27;;;;;;;;;75.25;56.25;;;;;9.73;50.96;99484.78;5019539;28;45259;-62
2022/03/31 07:10:53;;;;;;;;;68.50;53.75;;;;;9.76;51.17;99486.50;4966077;27;45452;-61
2022/03/31 07:13:18;;;;;;;;;69.00;52.00;;;;;9.78;51.17;99474.16;4959247;28;46130;-61
2022/03/31 07:15:44;;;;;;;;;66.00;51.00;;;;;9.81;50.86;99467.97;4959368;28;45312;-60
2022/03/31 07:18:09;;;;;;;;;70.25;50.50;;;;;9.85;51.29;99470.44;4959278;28;45342;-61
2022/03/31 07:20:36;;;;;;;;;68.75;53.25;;;;;9.89;50.84;99466.81;4959273;28;45426;-61
2022/03/31 07:23:02;;;;;;;;;62.50;50.00;;;;;9.90;50.97;99458.03;4959252;28;45444;-61
2022/03/31 07:25:28;;;;;;;;;64.50;50.50;;;;;9.97;50.83;99465.72;4957813;28;45336;-61
2022/03/31 07:27:53;;;;;;;;;65.75;52.00;;;;;10.01;51.06;99475.22;4959430;28;45311;-61
2022/03/31 07:30:21;;;;;;;;;69.50;52.75;;;;;10.04;51.01;99468.09;4961002;28;45215;-60
2022/03/31 07:32:53;;;;;;;;;59.75;46.75;;;;;10.07;50.81;99472.38;4957483;28;48316;-61
2022/03/31 07:35:21;;;;;;;;;63.50;48.00;;;;;10.11;50.79;99470.53;4976743;28;45414;-61
2022/03/31 07:37:47;;;;;;;;;68.00;53.25;;;;;10.12;51.02;99467.00;4978156;28;45260;-61
2022/03/31 07:40:13;;;;;;;;;59.00;47.50;;;;;10.18;50.79;99480.78;4960201;28;45379;-60
2022/03/31 07:42:38;;;;;;;;;62.00;47.75;;;;;10.22;50.75;99481.53;4963229;28;45419;-60
2022/03/31 07:45:04;;;;;;;;;60.00;47.50;;;;;10.27;50.95;99476.97;4958831;28;45503;-61
2022/03/31 07:47:29;;;;;;;;;65.25;50.00;;;;;10.31;50.99;99478.59;4958065;28;45347;-61
2022/03/31 07:49:55;;;;;;;;;65.00;47.00;;;;;10.35;50.92;99482.84;4958541;28;45313;-60
2022/03/31 07:52:21;;;;;;;;;60.50;47.75;;;;;10.37;50.89;99475.78;4958839;28;46042;-61
2022/03/31 07:54:48;;;;;;;;;59.50;47.25;;;;;10.45;50.76;99490.44;4958467;28;45258;-61
2022/03/31 07:57:13;;;;;;;;;60.25;47.00;;;;;10.47;50.79;99492.13;4959168;28;45295;-61
2022/03/31 07:59:39;;;;;;;;;59.00;47.00;;;;;10.50;50.96;99488.53;4957387;28;45737;-61
2022/03/31 08:02:04;;;;;;;;;63.50;47.50;;;;;10.51;50.79;99488.47;4958934;28;46830;-61
2022/03/31 08:04:29;;;;;;;;;59.50;45.00;;;;;10.52;50.55;99492.81;4958024;28;45229;-61
2022/03/31 08:06:55;;;;;;;;;60.00;46.00;;;;;10.54;50.59;99498.00;4959087;28;45228;-61
2022/03/31 08:09:21;;;;;;;;;64.50;50.25;;;;;10.55;50.71;99491.84;5031473;28;45506;-61
2022/03/31 08:11:49;;;;;;;;;64.00;47.75;;;;;10.54;50.34;99493.63;4957147;28;47918;-61
2022/03/31 08:14:19;;;;;;;;;56.00;44.50;;;;;10.55;50.51;99491.84;4958459;28;45514;-61
2022/03/31 08:16:46;;;;;;;;;54.75;40.75;;;;;10.54;50.68;99484.88;4958752;28;45241;-61
2022/03/31 08:19:12;;;;;;;;;60.50;48.00;;;;;10.56;50.50;99493.56;4958257;28;45165;-61
2022/03/31 08:21:38;;;;;;;;;58.75;46.25;;;;;10.55;50.47;99499.72;4958434;28;45443;-61
2022/03/31 08:24:03;;;;;;;;;59.50;46.25;;;;;10.51;50.53;99487.63;4958249;28;45352;-61
2022/03/31 08:26:29;;;;;;;;;58.50;45.50;;;;;10.52;50.44;99497.22;4958671;28;45360;-60
2022/03/31 08:28:54;;;;;;;;;58.50;45.50;;;;;10.51;50.48;99500.75;4962401;28;45477;-61
2022/03/31 08:31:20;;;;;;;;;58.50;47.75;;;;;10.46;50.54;99502.69;4977816;28;46153;-61
2022/03/31 08:33:45;;;;;;;;;64.50;49.25;;;;;10.47;50.39;99512.28;4977604;28;45529;-61
2022/03/31 08:36:10;;;;;;;;;61.50;45.50;;;;;10.43;50.43;99513.25;4977062;28;45354;-60
2022/03/31 08:38:36;;;;;;;;;61.75;47.00;;;;;10.44;50.55;99522.88;4977809;28;45302;-61
2022/03/31 08:41:03;;;;;;;;;58.50;43.50;;;;;10.40;50.56;99522.97;4965952;28;45354;-61
2022/03/31 08:43:30;;;;;;;;;50.75;42.25;;;;;10.37;50.58;99514.34;4975108;28;45228;-61
2022/03/31 08:45:56;;;;;;;;;39.75;34.00;;;;;10.33;50.70;99526.69;4977999;28;45323;-61
2022/03/31 08:48:28;;;;;;;;;31.25;27.00;;;;;10.30;50.54;99529.41;4976073;28;45198;-61
2022/03/31 08:50:54;;;;;;;;;30.75;26.25;;;;;10.24;50.52;99540.13;4977571;28;45167;-60
2022/03/31 08:53:20;;;;;;;;;26.75;24.25;;;;;10.20;50.58;99548.97;4977405;28;45240;-61
2022/03/31 08:55:45;;;;;;;;;26.75;24.75;;;;;10.13;50.67;99557.97;4992673;28;45204;-60
2022/03/31 08:58:10;;;;;;;;;27.75;24.25;;;;;10.05;50.55;99553.81;4977506;28;45223;-60
2022/03/31 09:00:36;;;;;;;;;27.75;27.25;;;;;9.98;50.50;99554.91;4977547;28;45224;-61
2022/03/31 09:03:07;;;;;;;;;26.75;26.00;;;;;9.91;50.41;99559.50;4975937;28;45361;-60
2022/03/31 09:05:49;;;;;;;;;35.25;26.00;;;;;9.88;50.48;99561.34;4977688;28;45237;-60
2022/03/31 09:08:16;;;;;;;;;28.75;24.00;;;;;9.80;50.27;99579.06;4970582;28;45391;-61
2022/03/31 09:10:47;;;;;;;;;21.25;21.25;;;;;9.70;49.93;99592.47;4957589;28;46348;-61
2022/03/31 09:13:25;;;;;;;;;17.00;12.00;;;;;9.63;50.38;99597.94;4957744;28;45419;-61
2022/03/31 09:15:58;;;;;;;;;17.25;17.00;;;;;9.55;50.23;99606.03;4956585;28;45352;-61
2022/03/31 09:18:25;;;;;;;;;19.50;16.75;;;;;9.47;50.36;99605.38;4959741;28;45605;-61
2022/03/31 09:20:54;;;;;;;;;17.75;16.50;;;;;9.41;50.17;99612.50;4960543;28;46140;-61
2022/03/31 09:23:24;;;;;;;;;13.25;13.25;;;;;9.36;50.12;99624.88;4960773;28;45193;-61
2022/03/31 09:25:51;;;;;;;;;16.00;13.00;;;;;9.30;50.10;99619.78;4960613;28;45358;-60
2022/03/31 09:28:24;;;;;;;;;14.00;12.25;;;;;9.23;50.23;99626.97;4960711;28;45314;-61
2022/03/31 09:30:51;;;;;;;;;13.50;12.75;;;;;9.18;49.85;99636.72;4980004;28;46404;-61
2022/03/31 09:33:53;;;;;;;;;8.00;7.50;;;;;9.11;49.92;99640.41;4979761;28;45333;-61
2022/03/31 09:36:21;;;;;;;;;12.00;10.50;;;;;9.03;49.84;99643.22;4957799;28;45190;-61
2022/03/31 09:39:07;;;;;;;;;10.75;10.25;;;;;8.96;50.15;99644.25;4978563;28;45532;-61
2022/03/31 09:41:36;;;;;;;;;12.25;11.50;;;;;8.91;49.54;99643.50;4979843;28;46932;-60
2022/03/31 09:44:07;;;;;;;;;11.50;11.25;;;;;8.85;50.09;99655.00;4994876;28;45350;-61
2022/03/31 09:46:35;;;;;;;;;13.00;12.00;;;;;8.79;50.05;99649.91;4980085;28;45296;-61
2022/03/31 09:49:24;;;;;;;;;13.00;11.75;;;;;8.73;50.12;99661.41;4979820;28;45162;-61
2022/03/31 09:52:01;;;;;;;;;13.50;11.25;;;;;8.68;50.11;99673.75;4979679;28;47152;-62
2022/03/31 09:54:29;;;;;;;;;10.50;10.50;;;;;8.61;50.26;99672.16;4978360;28;45367;-61
2022/03/31 09:56:57;;;;;;;;;11.50;11.50;;;;;8.58;50.09;99667.00;4980004;27;45289;-60
2022/03/31 09:59:35;;;;;;;;;11.00;11.00;;;;;8.53;50.02;99658.38;4978357;28;45422;-61
2022/03/31 10:02:01;;;;;;;;;11.00;11.00;;;;;8.49;49.86;99657.59;4979902;28;45450;-61
2022/03/31 10:04:27;;;;;;;;;13.75;10.75;;;;;8.43;50.22;99655.09;4979406;28;45326;-61
2022/03/31 10:06:53;;;;;;;;;14.50;10.50;;;;;8.43;50.34;99666.41;4978692;28;45283;-61
2022/03/31 10:09:19;;;;;;;;;12.50;8.00;;;;;8.37;50.10;99663.94;4966284;28;45305;-61
2022/03/31 10:11:55;;;;;;;;;12.50;11.75;;;;;8.42;50.24;99671.69;4959154;28;45264;-62
2022/03/31 10:14:43;;;;;;;;;13.00;11.00;;;;;8.38;50.04;99670.91;4959065;28;45240;-61
2022/03/31 10:17:10;;;;;;;;;12.50;11.75;;;;;8.33;50.21;99678.00;4959045;28;45326;-61
2022/03/31 10:19:46;;;;;;;;;9.50;9.50;;;;;8.34;50.47;99673.59;4958727;28;45482;-61
2022/03/31 10:25:11;;;;;;;;;10.00;8.50;;;;;8.19;50.20;99669.56;4959039;28;45339;-61
2022/03/31 10:27:45;;;;;;;;;10.50;10.50;;;;;8.27;50.18;99688.59;4957363;28;45201;-61
2022/03/31 10:30:13;;;;;;;;;14.50;13.00;;;;;8.26;50.50;99692.97;4973002;28;45282;-62
2022/03/31 10:32:50;;;;;;;;;8.75;8.75;;;;;8.26;50.28;99700.84;4977794;28;45512;-61
2022/03/31 10:35:28;;;;;;;;;13.25;12.00;;;;;8.26;50.38;99695.59;4978167;28;45343;-61
2022/03/31 10:37:54;;;;;;;;;13.25;11.75;;;;;8.26;50.42;99695.59;4978430;28;45302;-61
2022/03/31 10:40:40;;;;;;;;;11.50;9.75;;;;;8.24;50.24;99694.75;4977823;28;45489;-61
2022/03/31 10:43:06;;;;;;;;;11.50;10.75;;;;;8.25;50.51;99691.25;4978199;28;47053;-59
2022/03/31 10:45:40;;;;;;;;;10.75;10.50;;;;;8.26;50.49;99679.91;4978430;28;45237;-61
2022/03/31 10:48:18;;;;;;;;;11.25;9.50;;;;;8.27;50.51;99689.44;4978069;28;45251;-59
2022/03/31 10:50:44;;;;;;;;;10.75;9.75;;;;;8.28;50.59;99674.63;4978093;28;45319;-60
2022/03/31 10:53:10;;;;;;;;;11.50;11.50;;;;;8.31;50.60;99679.78;4977920;28;46164;-60
2022/03/31 10:55:36;;;;;;;;;12.00;10.25;;;;;8.33;50.50;99672.75;4977789;28;45337;-60
2022/03/31 10:58:03;;;;;;;;;10.75;10.75;;;;;8.37;50.53;99665.69;4978063;28;45399;-60
2022/03/31 11:00:29;;;;;;;;;13.50;12.00;;;;;8.40;50.71;99663.00;4977839;28;45492;-60
2022/03/31 11:02:55;;;;;;;;;12.50;10.75;;;;;8.48;50.73;99673.34;4976200;28;46066;-60
2022/03/31 11:05:25;;;;;;;;;10.25;8.75;;;;;8.54;50.81;99673.19;4978112;28;45315;-60
2022/03/31 11:08:07;;;;;;;;;11.50;8.25;;;;;8.57;50.75;99670.53;4980003;28;45305;-60
2022/03/31 11:10:43;;;;;;;;;11.25;9.25;;;;;8.63;50.75;99654.66;4895771;28;1811557;-60
2022/03/31 11:13:09;;;;;;;;;12.75;10.00;;;;;8.73;50.62;99673.63;4965991;28;45303;-60
2022/03/31 11:15:34;;;;;;;;;10.50;8.25;;;;;8.78;50.98;99659.53;4978805;28;45280;-60
2022/03/31 11:18:00;;;;;;;;;11.25;10.50;;;;;8.91;50.80;99672.34;4978716;28;45300;-60
2022/03/31 11:20:26;;;;;;;;;9.25;7.50;;;;;8.98;50.90;99668.69;4978992;28;45492;-60
2022/03/31 11:23:08;;;;;;;;;9.50;7.00;;;;;9.05;50.86;99666.75;4978947;28;46141;-60
2022/03/31 11:25:35;;;;;;;;;9.00;8.50;;;;;9.16;50.58;99677.81;4978682;28;45507;-60
2022/03/31 11:28:13;;;;;;;;;6.75;6.25;;;;;9.24;50.58;99680.25;4977701;28;45359;-60